Flight Track Log - Related Links

Times and Time Zones

All times are in EDT time to prevent confusion due to time zone crossing. See the SWA3206 flight status page for this flight to view local times or setup timezone preferences in your user account.

Time Position Orientation Groundspeed Altitude Reporting Facility
EDT Latitude Longitude Course Direction KTS MPH feet Rate Location/Type
Mon 08:40:13 PM 33.4319 -112.0461 263° West 155 178 2,600  Level Albuquerque Center
Mon 08:41:15 PM 33.4317 -112.1136 270° West 201 231 5,200 2,927 Climbing Albuquerque Center
Mon 08:42:16 PM 33.4497 -112.1806 288° West 234 269 8,600 3,415 Climbing Albuquerque Center
Mon 08:43:18 PM 33.5156 -112.1642 12° North 244 281 12,200 2,439 Climbing Albuquerque Center
Mon 08:44:19 PM 33.5506 -112.0800 63° Northeast 328 377 13,600 2,976 Climbing Albuquerque Center
Mon 08:45:21 PM 33.5722 -111.9406 79° East 357 411 18,300 3,610 Climbing Albuquerque Center
Mon 08:46:22 PM 33.5944 -111.8194 78° East 373 429 21,000 2,634 Climbing Albuquerque Center
Mon 08:47:24 PM 33.6169 -111.6914 78° East 390 449 23,700 2,390 Climbing Albuquerque Center
Mon 08:48:25 PM 33.6386 -111.5597 79° East 404 465 25,900 2,098 Climbing Albuquerque Center
Mon 08:49:27 PM 33.6628 -111.4206 78° East 426 490 28,000 1,951 Climbing Albuquerque Center
Mon 08:50:28 PM 33.6878 -111.2783 78° East 438 504 29,900 2,213 Climbing Albuquerque Center
Mon 08:51:29 PM 33.7439 -111.1153 67° East 444 511 32,500 2,244 Climbing Albuquerque Center
Mon 08:52:31 PM 33.7903 -110.9800 68° East 440 506 34,500 1,805 Climbing Albuquerque Center
Mon 08:53:32 PM 33.8386 -110.8461 66° East 439 505 36,200 1,463 Climbing Albuquerque Center
Mon 08:54:34 PM 33.8847 -110.7131 67° East 436 502 37,500 1,122 Climbing Albuquerque Center
Mon 08:55:35 PM 33.9317 -110.5778 67° East 438 504 38,500 738 Climbing Albuquerque Center
Mon 08:56:36 PM 33.9800 -110.4406 67° East 443 510 39,000 244 Climbing Albuquerque Center
Mon 08:57:38 PM 34.0311 -110.2978 67° East 449 517 39,000  Level Albuquerque Center
Mon 08:58:39 PM 34.0783 -110.1597 68° East 449 517 39,000  Level Albuquerque Center
Mon 08:59:41 PM 34.1361 -109.9939 67° East 445 512 39,000  Level Albuquerque Center
Mon 09:00:42 PM 34.1803 -109.8622 68° East 443 510 39,000  Level Albuquerque Center
Mon 09:01:43 PM 34.2244 -109.7306 68° East 443 510 39,000  Level Albuquerque Center
Mon 09:02:45 PM 34.2778 -109.5764 67° East 444 511 39,000  Level Albuquerque Center
Mon 09:03:46 PM 34.3239 -109.4442 67° East 446 513 39,000  Level Albuquerque Center
Mon 09:04:48 PM 34.3792 -109.2903 66° East 447 514 39,000  Level Albuquerque Center
Mon 09:05:49 PM 34.4261 -109.1589 67° East 446 513 39,000  Level Albuquerque Center
Mon 09:06:50 PM 34.4728 -109.0278 67° East 445 512 39,000  Level Albuquerque Center
Mon 09:07:52 PM 34.5264 -108.8758 67° East 442 509 39,000  Level Albuquerque Center
Mon 09:08:53 PM 34.5719 -108.7458 67° East 441 507 39,000  Level Albuquerque Center
Mon 09:09:55 PM 34.6250 -108.5950 67° East 439 505 39,000  Level Albuquerque Center
Mon 09:10:56 PM 34.6703 -108.4633 67° East 439 505 39,000  Level Albuquerque Center
Mon 09:11:57 PM 34.7172 -108.3272 67° East 438 504 39,000  Level Albuquerque Center
Mon 09:12:59 PM 34.7642 -108.1922 67° East 436 502 39,000  Level Albuquerque Center
Mon 09:14:00 PM 34.8108 -108.0581 67° East 433 498 39,000  Level Albuquerque Center
Mon 09:15:02 PM 34.8631 -107.9056 67° East 430 495 39,000  Level Albuquerque Center
Mon 09:16:03 PM 34.9011 -107.7897 68° East 429 494 39,000 148 Level Albuquerque Center
Mon 09:17:04 PM 34.9475 -107.6544 67° East 430 495 39,300 439 Climbing Albuquerque Center
Mon 09:18:06 PM 35.0042 -107.4883 67° East 438 504 39,900 683 Climbing Albuquerque Center
Mon 09:19:07 PM 35.0511 -107.3444 68° East 451 519 40,700 537 Climbing Albuquerque Center
Mon 09:20:09 PM 35.0989 -107.2019 68° East 452 520 41,000 146 Climbing Albuquerque Center
Mon 09:21:10 PM 35.1461 -107.0606 68° East 456 525 41,000  Level Albuquerque Center
Mon 09:22:11 PM 35.1975 -106.9022 68° East 451 519 41,000  Level Albuquerque Center
Mon 09:23:13 PM 35.2439 -106.7667 67° East 451 519 41,000  Level Albuquerque Center
Mon 09:24:14 PM 35.2881 -106.6314 68° East 450 518 41,000  Level Albuquerque Center
Mon 09:25:15 PM 35.3369 -106.4800 68° East 449 517 41,000  Level Albuquerque Center
Mon 09:26:17 PM 35.3822 -106.3408 68° East 443 510 41,000  Level Albuquerque Center
Mon 09:27:18 PM 35.4283 -106.2022 68° East 440 506 41,000  Level Albuquerque Center
Mon 09:28:19 PM 35.4725 -106.0611 69° East 442 509 41,000  Level Albuquerque Center
Mon 09:29:21 PM 35.5164 -105.9211 69° East 440 506 41,000  Level Albuquerque Center
Mon 09:30:22 PM 35.5647 -105.7600 70° East 441 507 41,000  Level Albuquerque Center
Mon 09:31:23 PM 35.6067 -105.6161 70° East 443 510 41,000  Level Albuquerque Center
Mon 09:32:25 PM 35.6494 -105.4711 70° East 445 512 41,000  Level Albuquerque Center
Mon 09:33:26 PM 35.6936 -105.3261 69° East 448 516 41,000  Level Albuquerque Center
Mon 09:34:27 PM 35.7344 -105.1811 71° East 445 512 41,000  Level Albuquerque Center
Mon 09:35:29 PM 35.7758 -105.0369 70° East 441 507 41,000  Level Albuquerque Center
Mon 09:36:30 PM 35.8183 -104.8928 70° East 442 509 41,000  Level Albuquerque Center
Mon 09:37:31 PM 35.8611 -104.7467 70° East 445 512 41,000  Level Albuquerque Center
Mon 09:38:33 PM 35.9039 -104.6003 70° East 448 516 41,000  Level Albuquerque Center
Mon 09:39:34 PM 35.9444 -104.4572 71° East 440 506 41,000  Level Albuquerque Center
Mon 09:40:35 PM 35.9861 -104.3125 70° East 440 506 41,000  Level Albuquerque Center
Mon 09:41:37 PM 36.0269 -104.1675 71° East 442 509 41,000  Level Albuquerque Center
Mon 09:42:38 PM 36.0758 -103.9981 70° East 443 510 41,000  Level Albuquerque Center
Mon 09:43:39 PM 36.1175 -103.8500 71° East 448 516 41,000  Level Albuquerque Center
Mon 09:44:41 PM 36.1597 -103.7064 70° East 442 509 41,000  Level Albuquerque Center
Mon 09:45:42 PM 36.2003 -103.5581 71° East 446 513 41,000  Level Albuquerque Center
Mon 09:46:43 PM 36.2411 -103.4108 71° East 448 516 41,000  Level Albuquerque Center
Mon 09:47:45 PM 36.2806 -103.2631 72° East 449 517 41,000  Level Albuquerque Center
Mon 09:48:46 PM 36.3197 -103.1131 72° East 451 519 41,000  Level Albuquerque Center
Mon 09:49:47 PM 36.3600 -102.9678 71° East 446 513 41,000  Level Albuquerque Center
Mon 09:50:49 PM 36.4036 -102.8103 71° East 448 516 41,000  Level Albuquerque Center
Mon 09:51:50 PM 36.4417 -102.6658 72° East 444 511 41,000  Level Albuquerque Center
Mon 09:52:51 PM 36.4811 -102.5183 72° East 447 514 41,000  Level Albuquerque Center
Mon 09:53:53 PM 36.5203 -102.3717 72° East 447 514 41,000  Level Albuquerque Center
Mon 09:54:54 PM 36.5594 -102.2267 71° East 443 510 41,000  Level Albuquerque Center
Mon 09:55:55 PM 36.5997 -102.0725 72° East 445 512 41,000  Level Albuquerque Center
Mon 09:56:57 PM 36.6356 -101.9328 72° East 444 511 41,000  Level Albuquerque Center
Mon 09:58:34 PM 36.7039 -101.6722 72° East 450 518 41,000  Level Kansas City Center
Mon 09:59:00 PM 36.7153 -101.6253 73° East 451 519 41,000  Level Albuquerque Center
Mon 10:00:02 PM 36.7583 -101.4592 72° East 451 519 41,000  Level Albuquerque Center
Mon 10:01:04 PM 36.7942 -101.3169 72° East 451 519 41,000  Level Albuquerque Center
Mon 10:01:38 PM 36.8181 -101.2225 72° East 450 518 41,000  Level Kansas City Center
Mon 10:02:39 PM 36.8539 -101.0822 72° East 447 514 41,000  Level Kansas City Center
Mon 10:03:41 PM 36.8958 -100.9175 72° East 446 513 41,000  Level Kansas City Center
Mon 10:04:42 PM 36.9300 -100.7781 73° East 443 510 41,000  Level Kansas City Center
Mon 10:05:43 PM 36.9656 -100.6383 72° East 442 509 41,000  Level Kansas City Center
Mon 10:06:45 PM 37.0064 -100.4750 73° East 443 510 41,000  Level Kansas City Center
Mon 10:07:46 PM 37.0403 -100.3342 73° East 443 510 41,000  Level Kansas City Center
Mon 10:08:47 PM 37.0803 -100.1681 73° East 447 514 41,000  Level Kansas City Center
Mon 10:09:48 PM 37.1147 -100.0247 73° East 450 518 41,000  Level Kansas City Center
Mon 10:10:50 PM 37.1553 -99.8594 73° East 448 516 41,000  Level Kansas City Center
Mon 10:11:51 PM 37.1886 -99.7172 74° East 447 514 41,000  Level Kansas City Center
Mon 10:12:52 PM 37.2214 -99.5753 74° East 445 512 41,000  Level Kansas City Center
Mon 10:13:54 PM 37.2567 -99.4267 73° East 453 521 41,000  Level Kansas City Center
Mon 10:14:55 PM 37.2917 -99.2739 74° East 454 522 41,000  Level Kansas City Center
Mon 10:15:56 PM 37.3325 -99.1156 72° East 446 513 41,000  Level Kansas City Center
Mon 10:16:57 PM 37.3647 -98.9628 75° East 451 519 41,000  Level Kansas City Center
Mon 10:17:59 PM 37.3994 -98.8125 74° East 449 517 41,000  Level Kansas City Center
Mon 10:19:00 PM 37.4339 -98.6628 74° East 448 516 41,000  Level Kansas City Center
Mon 10:20:01 PM 37.4678 -98.5139 74° East 445 512 41,000  Level Kansas City Center
Mon 10:21:03 PM 37.5083 -98.3331 74° East 448 516 41,000  Level Kansas City Center
Mon 10:22:04 PM 37.5425 -98.1839 74° East 446 513 41,000  Level Kansas City Center
Mon 10:23:05 PM 37.5761 -98.0342 74° East 447 514 41,000  Level Kansas City Center
Mon 10:24:06 PM 37.6089 -97.8844 75° East 448 516 41,000  Level Kansas City Center
Mon 10:25:08 PM 37.6406 -97.7350 75° East 445 512 41,000  Level Kansas City Center
Mon 10:26:09 PM 37.6739 -97.5831 74° East 446 513 41,000  Level Kansas City Center
Mon 10:27:10 PM 37.7064 -97.4389 74° East 444 511 41,000  Level Kansas City Center
Mon 10:28:12 PM 37.7458 -97.2606 74° East 442 509 41,000  Level Kansas City Center
Mon 10:29:13 PM 37.7775 -97.1111 75° East 442 509 41,000  Level Kansas City Center
Mon 10:30:14 PM 37.8089 -96.9622 75° East 440 506 41,000  Level Kansas City Center
Mon 10:31:16 PM 37.8408 -96.8119 75° East 443 510 41,000  Level Kansas City Center
Mon 10:32:17 PM 37.8719 -96.6622 75° East 442 509 41,000  Level Kansas City Center
Mon 10:33:18 PM 37.9044 -96.5100 75° East 446 513 41,000  Level Kansas City Center
Mon 10:34:19 PM 37.9350 -96.3575 76° East 447 514 41,000  Level Kansas City Center
Mon 10:35:20 PM 37.9672 -96.2042 75° East 451 519 41,000  Level Kansas City Center
Mon 10:36:22 PM 38.0008 -96.0367 76° East 447 514 41,000  Level Kansas City Center
Mon 10:37:23 PM 38.0311 -95.8894 75° East 452 520 41,000  Level Kansas City Center
Mon 10:38:24 PM 38.0647 -95.7178 76° East 450 518 41,000  Level Kansas City Center
Mon 10:39:25 PM 38.0944 -95.5717 75° East 448 516 41,000  Level Kansas City Center
Mon 10:40:26 PM 38.1272 -95.4014 76° East 446 513 41,000  Level Kansas City Center
Mon 10:41:28 PM 38.1561 -95.2558 76° East 445 512 41,000  Level Kansas City Center
Mon 10:42:29 PM 38.1842 -95.1125 76° East 442 509 41,000  Level Kansas City Center
Mon 10:43:30 PM 38.2169 -94.9431 76° East 443 510 41,000  Level Kansas City Center
Mon 10:44:31 PM 38.2450 -94.7958 76° East 446 513 41,000  Level Kansas City Center
Mon 10:45:32 PM 38.2783 -94.6236 76° East 448 516 41,000  Level Kansas City Center
Mon 10:46:33 PM 38.3053 -94.4750 77° East 450 518 41,000  Level Kansas City Center
Mon 10:47:34 PM 38.3333 -94.3272 76° East 450 518 41,000  Level Kansas City Center
Mon 10:48:36 PM 38.3667 -94.1539 76° East 451 519 41,000  Level Kansas City Center
Mon 10:49:37 PM 38.3942 -93.9936 78° East 448 516 41,000  Level Kansas City Center
Mon 10:50:38 PM 38.4236 -93.8356 77° East 452 520 41,000  Level Kansas City Center
Mon 10:51:39 PM 38.4533 -93.6761 77° East 458 527 41,000  Level Kansas City Center
Mon 10:52:40 PM 38.4814 -93.5183 77° East 457 526 41,000  Level Kansas City Center
Mon 10:53:41 PM 38.5097 -93.3600 77° East 456 525 41,000  Level Kansas City Center
Mon 10:54:42 PM 38.5378 -93.2031 77° East 454 522 41,000  Level Kansas City Center
Mon 10:55:44 PM 38.5658 -93.0450 77° East 454 522 41,000  Level Kansas City Center
Mon 10:56:45 PM 38.5933 -92.8878 77° East 451 519 41,000  Level Kansas City Center
Mon 10:57:46 PM 38.6200 -92.7297 78° East 452 520 41,000  Level Kansas City Center
Mon 10:58:47 PM 38.6472 -92.5708 78° East 453 521 41,000  Level Kansas City Center
Mon 10:59:48 PM 38.6739 -92.4111 78° East 455 524 41,000  Level Kansas City Center
Mon 11:00:49 PM 38.7014 -92.2486 78° East 460 529 41,000  Level Kansas City Center
Mon 11:01:50 PM 38.7275 -92.0875 78° East 460 529 41,000  Level Kansas City Center
Mon 11:02:51 PM 38.7542 -91.9253 78° East 461 531 41,000  Level Kansas City Center
Mon 11:03:52 PM 38.7794 -91.7622 79° East 464 534 41,000  Level Kansas City Center
Mon 11:04:53 PM 38.8075 -91.5931 78° East 465 535 41,000  Level Kansas City Center
Mon 11:05:54 PM 38.8339 -91.4311 78° East 465 535 41,000  Level Kansas City Center
Mon 11:06:55 PM 38.8592 -91.2694 79° East 464 534 41,000  Level Kansas City Center
Mon 11:07:56 PM 38.8847 -91.1069 79° East 464 534 41,000  Level Kansas City Center
Mon 11:08:57 PM 38.9094 -90.9453 79° East 462 532 41,000  Level Kansas City Center
Mon 11:09:58 PM 38.9389 -90.7522 79° East 457 526 41,000  Level Kansas City Center
Mon 11:11:00 PM 38.9647 -90.5894 78° East 460 529 41,000  Level Kansas City Center
Mon 11:12:01 PM 38.9900 -90.4250 79° East 463 533 41,000  Level Kansas City Center
Mon 11:13:02 PM 39.0144 -90.2608 79° East 463 533 41,000  Level Kansas City Center
Mon 11:14:03 PM 39.0389 -90.0956 79° East 465 535 41,000  Level Kansas City Center
Mon 11:15:04 PM 39.0617 -89.9325 80° East 464 534 41,000  Level Kansas City Center
Mon 11:16:05 PM 39.0853 -89.7689 79° East 463 533 41,000  Level Kansas City Center
Mon 11:17:06 PM 39.1106 -89.5908 80° East 467 537 41,000  Level Kansas City Center
Mon 11:18:07 PM 39.1344 -89.4258 79° East 469 540 41,000  Level Kansas City Center
Mon 11:19:08 PM 39.1569 -89.2606 80° East 468 539 41,000  Level Kansas City Center
Mon 11:20:09 PM 39.1792 -89.1058 79° East 474 545 41,000  Level Kansas City Center
Mon 11:21:10 PM 39.2025 -88.9397 80° East 473 544 41,000  Level Kansas City Center
Mon 11:22:11 PM 39.2264 -88.7750 79° East 471 542 41,000  Level Kansas City Center
Mon 11:23:12 PM 39.2525 -88.5828 80° East 473 544 41,000  Level Kansas City Center
Mon 11:24:13 PM 39.2744 -88.4156 80° East 471 542 41,000  Level Kansas City Center
Mon 11:25:14 PM 39.2972 -88.2478 80° East 472 543 41,000  Level Kansas City Center
Mon 11:26:15 PM 39.3183 -88.0808 81° East 470 541 41,000  Level Kansas City Center
Mon 11:27:16 PM 39.3378 -87.9139 81° East 469 540 41,000  Level Kansas City Center
Mon 11:27:40 PM 39.3461 -87.8486 81° East 472 543 41,000  Level Indianapolis Center
Mon 11:28:41 PM 39.3667 -87.6819 81° East 468 539 41,000  Level Indianapolis Center
Mon 11:29:42 PM 39.3883 -87.5008 81° East 469 540 41,000  Level Indianapolis Center
Mon 11:30:43 PM 39.4094 -87.3339 81° East 468 539 41,000  Level Indianapolis Center
Mon 11:31:45 PM 39.4294 -87.1661 81° East 469 540 41,000  Level Indianapolis Center
Mon 11:32:46 PM 39.4508 -87.0000 80° East 466 536 41,000  Level Indianapolis Center
Mon 11:33:47 PM 39.4692 -86.8342 82° East 467 537 41,000  Level Indianapolis Center
Mon 11:34:48 PM 39.4892 -86.6683 81° East 466 536 41,000  Level Indianapolis Center
Mon 11:35:49 PM 39.5081 -86.5031 82° East 465 535 41,000  Level Indianapolis Center
Mon 11:36:50 PM 39.5261 -86.3389 82° East 464 534 41,000  Level Indianapolis Center
Mon 11:37:51 PM 39.5450 -86.1747 81° East 465 535 41,000  Level Indianapolis Center
Mon 11:38:52 PM 39.5625 -86.0111 82° East 462 532 41,000  Level Indianapolis Center
Mon 11:39:53 PM 39.5842 -85.8203 82° East 459 528 41,000  Level Indianapolis Center
Mon 11:40:54 PM 39.6025 -85.6567 82° East 458 527 41,000  Level Indianapolis Center
Mon 11:41:55 PM 39.6186 -85.4925 83° East 459 528 41,000  Level Indianapolis Center
Mon 11:42:56 PM 39.6375 -85.3275 81° East 459 528 41,000  Level Indianapolis Center
Mon 11:43:57 PM 39.6542 -85.1622 82° East 460 529 41,000  Level Indianapolis Center
Mon 11:44:58 PM 39.6622 -84.9950 86° East 462 532 41,000  Level Indianapolis Center
Mon 11:45:59 PM 39.6647 -84.8442 89° East 463 533 41,000  Level Indianapolis Center
Mon 11:47:00 PM 39.6686 -84.6761 88° East 463 533 41,000  Level Indianapolis Center
Mon 11:48:00 PM 39.6711 -84.5075 89° East 465 535 41,000  Level Indianapolis Center
Mon 11:49:01 PM 39.6761 -84.3094 88° East 467 537 41,000  Level Indianapolis Center
Mon 11:50:02 PM 39.6794 -84.1403 88° East 467 537 41,000  Level Indianapolis Center
Mon 11:51:03 PM 39.6817 -83.9717 89° East 465 535 41,000  Level Indianapolis Center
Mon 11:52:04 PM 39.6844 -83.8044 89° East 463 533 41,000  Level Indianapolis Center
Mon 11:53:05 PM 39.6867 -83.6375 89° East 463 533 41,000  Level Indianapolis Center
Mon 11:54:06 PM 39.6889 -83.4722 89° East 464 534 41,000  Level Indianapolis Center
Mon 11:55:07 PM 39.6906 -83.3075 89° East 461 531 41,000  Level Indianapolis Center
Mon 11:56:07 PM 39.6925 -83.1422 89° East 459 528 41,000  Level Indianapolis Center
Mon 11:57:08 PM 39.6944 -82.9756 89° East 461 531 41,000  Level Indianapolis Center
Mon 11:58:09 PM 39.6956 -82.8106 89° East 456 525 41,000  Level Indianapolis Center
Mon 11:59:10 PM 39.6964 -82.6439 90° East 458 527 41,000  Level Indianapolis Center
Tue 12:00:11 AM 39.6981 -82.4786 89° East 455 524 41,000  Level Indianapolis Center
Tue 12:01:11 AM 39.6981 -82.3100 90° East 463 533 41,000  Level Indianapolis Center
Tue 12:02:12 AM 39.6975 -82.1439 90° East 459 528 41,000  Level Indianapolis Center
Tue 12:03:13 AM 39.6975 -81.9606 90° East 463 533 41,000  Level Indianapolis Center
Tue 12:04:14 AM 39.6981 -81.7922 90° East 464 534 41,000  Level Indianapolis Center
Tue 12:05:14 AM 39.6925 -81.6225 92° East 469 540 41,000  Level Indianapolis Center
Tue 12:06:15 AM 39.6803 -81.4531 95° East 469 540 41,000  Level Indianapolis Center
Tue 12:07:16 AM 39.6692 -81.2836 95° East 469 540 41,000  Level Indianapolis Center
Tue 12:08:17 AM 39.6575 -81.1136 95° East 472 543 41,000  Level Indianapolis Center
Tue 12:09:17 AM 39.6461 -80.9428 95° East 473 544 41,000  Level Indianapolis Center
Tue 12:10:18 AM 39.6339 -80.7731 95° East 472 543 41,000  Level Indianapolis Center
Tue 12:11:19 AM 39.6208 -80.6044 96° East 469 540 41,000  Level Indianapolis Center
Tue 12:11:51 AM 39.6172 -80.5189 93° East 469 540 41,000  Level Washington Center
Tue 12:12:51 AM 39.6050 -80.3536 95° East 464 534 41,000  Level Washington Center
Tue 12:13:51 AM 39.5928 -80.1886 95° East 464 534 41,000  Level Washington Center
Tue 12:14:52 AM 39.5800 -80.0236 96° East 464 534 41,000  Level Washington Center
Tue 12:15:51 AM 39.5672 -79.8611 96° East 464 534 41,000  Level Washington Center
Tue 12:16:54 AM 39.5542 -79.6989 96° East 459 528 41,000  Level Washington Center
Tue 12:17:52 AM 39.5408 -79.5339 96° East 459 528 41,000 -153 Level Washington Center
Tue 12:18:52 AM 39.5253 -79.3664 97° East 465 535 40,700 -605 Descending Washington Center
Tue 12:19:51 AM 39.5097 -79.1986 97° East 465 535 39,800 -1,462 Descending Washington Center
Tue 12:20:51 AM 39.4958 -79.0286 96° East 470 541 37,800 -2,600 Descending Washington Center
Tue 12:21:51 AM 39.4819 -78.8611 96° East 470 541 34,600 -3,421 Descending Washington Center
Tue 12:22:52 AM 39.4656 -78.6911 97° East 470 541 30,900 -3,600 Descending Washington Center
Tue 12:23:51 AM 39.4508 -78.5211 96° East 470 541 27,400 -3,277 Descending Washington Center
Tue 12:24:51 AM 39.4342 -78.3539 97° East 470 541 24,400 -2,829 Descending Washington Center
Tue 12:25:54 AM 39.4186 -78.2000 97° East 451 519 21,600 -2,777 Descending Washington Center
Tue 12:26:52 AM 39.4053 -78.0492 96° East 438 504 18,800 -2,821 Descending Washington Center
Tue 12:27:51 AM 39.3914 -77.9064 97° East 416 479 16,100 -2,168 Descending Washington Center
Tue 12:28:51 AM 39.3836 -77.7664 94° East 403 464 14,500 -1,600 Descending Washington Center
Tue 12:29:51 AM 39.3839 -77.6350 90° East 384 442 12,900 -1,366 Descending Washington Center
Tue 12:30:54 AM 39.3836 -77.5167 90° East 351 404 11,700 -1,350 Descending Washington Center
Tue 12:31:51 AM 39.3833 -77.4119 90° East 313 360 10,200 -1,418 Descending Washington Center
Tue 12:32:44 AM 39.3833 -77.3333 90° East 296 341 9,100 -1,381 Descending Potomac TRACON
Tue 12:33:44 AM 39.3833 -77.2333 90° East 282 325 7,600 -1,450 Descending Potomac TRACON
Tue 12:34:44 AM 39.3667 -77.1333 102° East 281 323 6,200 -1,300 Descending Potomac TRACON
Tue 12:35:44 AM 39.3167 -77.0667 134° Southeast 282 325 5,000 -1,100 Descending Potomac TRACON
Tue 12:36:44 AM 39.2667 -77.0167 142° Southeast 257 296 4,000 -600 Descending Potomac TRACON
Tue 12:37:44 AM 39.2167 -77.0000 166° South 249 287 3,800 -500 Descending Potomac TRACON
Tue 12:38:44 AM 39.1833 -76.9500 131° Southeast 167 192 3,000 -650 Descending Potomac TRACON
Tue 12:39:44 AM 39.1833 -76.9000 90° East 157 181 2,500 -263 Descending Potomac TRACON
Tue 12:40:38 AM 39.1833 -76.8500 90° East 144 166 2,500 -316 Level Potomac TRACON
Tue 12:41:38 AM 39.1833 -76.8000 90° East 140 161 1,900 -650 Descending Potomac TRACON
Tue 12:42:38 AM 39.1833 -76.7667 90° East 125 144 1,200 -650 Descending Potomac TRACON
Tue 12:43:38 AM 39.1833 -76.7167 90° East 115 132 600 -400 Descending Potomac TRACON
Tue 12:44:38 AM 39.1667 -76.6833 123° Southeast 116 133 400 -200 Descending Potomac TRACON
Tue 12:46:00 AM 39.1667 -76.6667 142° Southeast  Level FlightAware Approximate
Tue 12:53:00 AM 39.1754 -76.6683 142° Southeast  Level Estimated
Tue 12:54:00 AM 39.1754 -76.6683 142° Southeast  Level Estimated
Tue 12:55:00 AM 39.1754 -76.6683 142° Southeast  Level Estimated

Login

Don't have an account? Register now (free) for customized features, flight alerts, and more!